sensor_id;sensor_type;location;lat;lon;timestamp;temperature;humidity
50556;DHT22;36508;52.512;13.450;2022-07-30T00:01:31;22.40;79.50
50556;DHT22;36508;52.512;13.450;2022-07-30T00:03:58;22.40;79.60
50556;DHT22;36508;52.512;13.450;2022-07-30T00:06:24;22.40;79.40
50556;DHT22;36508;52.512;13.450;2022-07-30T00:08:49;22.30;79.70
50556;DHT22;36508;52.512;13.450;2022-07-30T00:11:15;22.20;80.00
50556;DHT22;36508;52.512;13.450;2022-07-30T00:13:41;22.20;80.10
50556;DHT22;36508;52.512;13.450;2022-07-30T00:16:06;22.20;80.40
50556;DHT22;36508;52.512;13.450;2022-07-30T00:18:32;22.20;80.70
50556;DHT22;36508;52.512;13.450;2022-07-30T00:20:58;22.20;80.60
50556;DHT22;36508;52.512;13.450;2022-07-30T00:23:24;22.20;80.90
50556;DHT22;36508;52.512;13.450;2022-07-30T00:25:50;22.10;80.90
50556;DHT22;36508;52.512;13.450;2022-07-30T00:28:15;22.10;81.20
50556;DHT22;36508;52.512;13.450;2022-07-30T00:30:41;22.10;81.50
50556;DHT22;36508;52.512;13.450;2022-07-30T00:33:07;22.10;81.30
50556;DHT22;36508;52.512;13.450;2022-07-30T00:35:32;22.00;81.60
50556;DHT22;36508;52.512;13.450;2022-07-30T00:37:58;22.10;81.70
50556;DHT22;36508;52.512;13.450;2022-07-30T00:40:24;22.00;81.80
50556;DHT22;36508;52.512;13.450;2022-07-30T00:42:50;22.10;81.90
50556;DHT22;36508;52.512;13.450;2022-07-30T00:45:16;22.10;81.90
50556;DHT22;36508;52.512;13.450;2022-07-30T00:47:43;22.00;82.10
50556;DHT22;36508;52.512;13.450;2022-07-30T00:50:11;22.00;82.10
50556;DHT22;36508;52.512;13.450;2022-07-30T00:52:38;21.90;82.60
50556;DHT22;36508;52.512;13.450;2022-07-30T00:55:06;21.90;82.70
50556;DHT22;36508;52.512;13.450;2022-07-30T00:57:32;21.80;82.60
50556;DHT22;36508;52.512;13.450;2022-07-30T00:59:58;21.80;82.80
50556;DHT22;36508;52.512;13.450;2022-07-30T01:02:24;21.70;83.30
50556;DHT22;36508;52.512;13.450;2022-07-30T01:04:50;21.60;83.70
50556;DHT22;36508;52.512;13.450;2022-07-30T01:07:15;21.60;84.00
50556;DHT22;36508;52.512;13.450;2022-07-30T01:09:41;21.60;84.80
50556;DHT22;36508;52.512;13.450;2022-07-30T01:12:08;21.70;83.90
50556;DHT22;36508;52.512;13.450;2022-07-30T01:14:35;21.60;84.10
50556;DHT22;36508;52.512;13.450;2022-07-30T01:17:03;21.60;84.20
50556;DHT22;36508;52.512;13.450;2022-07-30T01:19:33;21.70;84.10
50556;DHT22;36508;52.512;13.450;2022-07-30T01:28:05;21.50;84.90
50556;DHT22;36508;52.512;13.450;2022-07-30T01:30:34;21.50;85.30
50556;DHT22;36508;52.512;13.450;2022-07-30T01:33:02;21.50;85.10
50556;DHT22;36508;52.512;13.450;2022-07-30T01:35:31;21.40;85.20
50556;DHT22;36508;52.512;13.450;2022-07-30T01:37:58;21.40;85.40
50556;DHT22;36508;52.512;13.450;2022-07-30T01:40:27;21.40;85.60
50556;DHT22;36508;52.512;13.450;2022-07-30T01:42:54;21.40;86.00
50556;DHT22;36508;52.512;13.450;2022-07-30T01:45:23;21.40;86.00
50556;DHT22;36508;52.512;13.450;2022-07-30T01:47:57;21.40;86.10
50556;DHT22;36508;52.512;13.450;2022-07-30T01:50:24;21.40;86.10
50556;DHT22;36508;52.512;13.450;2022-07-30T01:52:53;21.30;86.40
50556;DHT22;36508;52.512;13.450;2022-07-30T01:55:29;21.40;86.60
50556;DHT22;36508;52.512;13.450;2022-07-30T01:57:57;21.30;86.60
50556;DHT22;36508;52.512;13.450;2022-07-30T02:00:27;21.40;86.80
50556;DHT22;36508;52.512;13.450;2022-07-30T02:02:56;21.30;86.80
50556;DHT22;36508;52.512;13.450;2022-07-30T02:05:22;21.20;86.90
50556;DHT22;36508;52.512;13.450;2022-07-30T02:08:23;21.20;87.30
50556;DHT22;36508;52.512;13.450;2022-07-30T02:10:53;21.20;87.40
50556;DHT22;36508;52.512;13.450;2022-07-30T02:13:21;21.30;87.30
50556;DHT22;36508;52.512;13.450;2022-07-30T02:18:47;21.10;87.80
50556;DHT22;36508;52.512;13.450;2022-07-30T02:21:16;21.00;88.00
50556;DHT22;36508;52.512;13.450;2022-07-30T02:23:45;21.00;88.20
50556;DHT22;36508;52.512;13.450;2022-07-30T02:26:13;21.00;88.30
50556;DHT22;36508;52.512;13.450;2022-07-30T02:28:44;20.90;88.80
50556;DHT22;36508;52.512;13.450;2022-07-30T02:31:12;20.80;89.30
50556;DHT22;36508;52.512;13.450;2022-07-30T02:33:40;20.80;89.50
50556;DHT22;36508;52.512;13.450;2022-07-30T02:36:08;20.80;89.40
50556;DHT22;36508;52.512;13.450;2022-07-30T02:38:36;20.80;89.70
50556;DHT22;36508;52.512;13.450;2022-07-30T02:41:03;20.80;89.80
50556;DHT22;36508;52.512;13.450;2022-07-30T02:43:32;20.80;90.00
50556;DHT22;36508;52.512;13.450;2022-07-30T02:45:59;20.80;90.00
50556;DHT22;36508;52.512;13.450;2022-07-30T02:48:26;20.70;90.10
50556;DHT22;36508;52.512;13.450;2022-07-30T02:50:54;20.80;90.30
50556;DHT22;36508;52.512;13.450;2022-07-30T02:53:22;20.80;90.20
50556;DHT22;36508;52.512;13.450;2022-07-30T02:55:50;20.80;90.20
50556;DHT22;36508;52.512;13.450;2022-07-30T02:58:21;20.80;90.30
50556;DHT22;36508;52.512;13.450;2022-07-30T03:00:48;20.70;90.40
50556;DHT22;36508;52.512;13.450;2022-07-30T03:03:15;20.80;90.40
50556;DHT22;36508;52.512;13.450;2022-07-30T03:05:43;20.80;90.40
50556;DHT22;36508;52.512;13.450;2022-07-30T03:08:12;20.70;90.50
50556;DHT22;36508;52.512;13.450;2022-07-30T03:10:40;20.70;90.60
50556;DHT22;36508;52.512;13.450;2022-07-30T03:13:09;20.70;90.70
50556;DHT22;36508;52.512;13.450;2022-07-30T03:15:37;20.70;90.70
50556;DHT22;36508;52.512;13.450;2022-07-30T03:18:09;20.60;90.80
50556;DHT22;36508;52.512;13.450;2022-07-30T03:20:36;20.50;91.10
50556;DHT22;36508;52.512;13.450;2022-07-30T03:23:03;20.50;91.20
50556;DHT22;36508;52.512;13.450;2022-07-30T03:25:31;20.50;91.40
50556;DHT22;36508;52.512;13.450;2022-07-30T03:27:58;20.50;91.30
50556;DHT22;36508;52.512;13.450;2022-07-30T03:30:25;20.50;91.40
50556;DHT22;36508;52.512;13.450;2022-07-30T03:32:53;20.50;91.40
50556;DHT22;36508;52.512;13.450;2022-07-30T03:35:20;20.60;91.40
50556;DHT22;36508;52.512;13.450;2022-07-30T03:37:47;20.60;91.50
50556;DHT22;36508;52.512;13.450;2022-07-30T03:40:14;20.50;91.50
50556;DHT22;36508;52.512;13.450;2022-07-30T03:42:40;20.50;91.70
50556;DHT22;36508;52.512;13.450;2022-07-30T03:45:08;20.60;91.70
50556;DHT22;36508;52.512;13.450;2022-07-30T03:47:37;20.50;91.60
50556;DHT22;36508;52.512;13.450;2022-07-30T03:50:04;20.60;91.70
50556;DHT22;36508;52.512;13.450;2022-07-30T03:52:40;20.60;91.70
50556;DHT22;36508;52.512;13.450;2022-07-30T03:55:08;20.60;91.80
50556;DHT22;36508;52.512;13.450;2022-07-30T03:57:35;20.70;91.90
50556;DHT22;36508;52.512;13.450;2022-07-30T04:00:11;20.70;91.70
50556;DHT22;36508;52.512;13.450;2022-07-30T04:02:42;20.60;91.80
50556;DHT22;36508;52.512;13.450;2022-07-30T04:05:08;20.60;91.90
50556;DHT22;36508;52.512;13.450;2022-07-30T04:07:35;20.70;92.00
50556;DHT22;36508;52.512;13.450;2022-07-30T04:10:01;20.80;92.00
50556;DHT22;36508;52.512;13.450;2022-07-30T04:12:27;20.80;91.70
50556;DHT22;36508;52.512;13.450;2022-07-30T04:14:52;20.90;91.80
50556;DHT22;36508;52.512;13.450;2022-07-30T04:17:25;20.70;92.10
50556;DHT22;36508;52.512;13.450;2022-07-30T04:20:04;20.80;92.00
50556;DHT22;36508;52.512;13.450;2022-07-30T04:22:33;20.60;92.00
50556;DHT22;36508;52.512;13.450;2022-07-30T04:25:01;20.60;92.20
50556;DHT22;36508;52.512;13.450;2022-07-30T04:27:28;20.70;92.20
50556;DHT22;36508;52.512;13.450;2022-07-30T04:29:55;20.50;92.40
50556;DHT22;36508;52.512;13.450;2022-07-30T04:32:21;20.70;92.20
50556;DHT22;36508;52.512;13.450;2022-07-30T04:34:52;20.80;92.20
50556;DHT22;36508;52.512;13.450;2022-07-30T04:37:21;20.60;92.50
50556;DHT22;36508;52.512;13.450;2022-07-30T04:39:47;20.60;92.60
50556;DHT22;36508;52.512;13.450;2022-07-30T04:42:28;20.70;92.60
50556;DHT22;36508;52.512;13.450;2022-07-30T04:44:55;20.70;92.40
50556;DHT22;36508;52.512;13.450;2022-07-30T04:47:22;20.60;92.60
50556;DHT22;36508;52.512;13.450;2022-07-30T04:49:48;20.70;92.80
50556;DHT22;36508;52.512;13.450;2022-07-30T04:52:15;20.80;92.90
50556;DHT22;36508;52.512;13.450;2022-07-30T04:54:47;20.90;92.60
50556;DHT22;36508;52.512;13.450;2022-07-30T04:57:16;20.90;92.50
50556;DHT22;36508;52.512;13.450;2022-07-30T04:59:42;20.90;92.50
50556;DHT22;36508;52.512;13.450;2022-07-30T05:02:10;20.90;92.50
50556;DHT22;36508;52.512;13.450;2022-07-30T05:04:37;20.90;93.00
50556;DHT22;36508;52.512;13.450;2022-07-30T05:07:05;21.00;93.30
50556;DHT22;36508;52.512;13.450;2022-07-30T05:09:32;21.10;93.30
50556;DHT22;36508;52.512;13.450;2022-07-30T05:11:58;21.20;93.10
50556;DHT22;36508;52.512;13.450;2022-07-30T05:14:25;21.20;92.80
50556;DHT22;36508;52.512;13.450;2022-07-30T05:16:52;21.10;93.10
50556;DHT22;36508;52.512;13.450;2022-07-30T05:19:18;21.20;93.20
50556;DHT22;36508;52.512;13.450;2022-07-30T05:21:44;21.40;93.10
50556;DHT22;36508;52.512;13.450;2022-07-30T05:24:10;21.30;92.80
50556;DHT22;36508;52.512;13.450;2022-07-30T05:26:37;21.30;92.90
50556;DHT22;36508;52.512;13.450;2022-07-30T05:29:04;21.20;93.10
50556;DHT22;36508;52.512;13.450;2022-07-30T05:31:30;21.20;92.90
50556;DHT22;36508;52.512;13.450;2022-07-30T05:33:55;21.20;93.30
50556;DHT22;36508;52.512;13.450;2022-07-30T05:36:21;21.20;93.30
50556;DHT22;36508;52.512;13.450;2022-07-30T05:38:47;21.20;93.10
50556;DHT22;36508;52.512;13.450;2022-07-30T05:41:13;21.20;93.10
50556;DHT22;36508;52.512;13.450;2022-07-30T05:43:39;21.20;93.50
50556;DHT22;36508;52.512;13.450;2022-07-30T05:46:05;21.20;93.40
50556;DHT22;36508;52.512;13.450;2022-07-30T05:48:30;21.40;93.30
50556;DHT22;36508;52.512;13.450;2022-07-30T05:51:00;21.50;93.30
50556;DHT22;36508;52.512;13.450;2022-07-30T05:53:25;21.50;93.60
50556;DHT22;36508;52.512;13.450;2022-07-30T05:55:51;21.50;93.10
50556;DHT22;36508;52.512;13.450;2022-07-30T05:58:16;21.60;93.10
50556;DHT22;36508;52.512;13.450;2022-07-30T06:00:44;21.50;93.10
50556;DHT22;36508;52.512;13.450;2022-07-30T06:03:09;21.60;93.30
50556;DHT22;36508;52.512;13.450;2022-07-30T06:05:35;21.50;93.50
50556;DHT22;36508;52.512;13.450;2022-07-30T06:08:01;21.40;93.70
50556;DHT22;36508;52.512;13.450;2022-07-30T06:10:27;21.40;94.00
50556;DHT22;36508;52.512;13.450;2022-07-30T06:12:52;21.40;93.60
50556;DHT22;36508;52.512;13.450;2022-07-30T06:15:18;21.40;93.90
50556;DHT22;36508;52.512;13.450;2022-07-30T06:17:45;21.40;93.80
50556;DHT22;36508;52.512;13.450;2022-07-30T06:20:12;21.20;94.20
50556;DHT22;36508;52.512;13.450;2022-07-30T06:22:38;21.30;94.00
50556;DHT22;36508;52.512;13.450;2022-07-30T06:25:05;21.40;93.90
50556;DHT22;36508;52.512;13.450;2022-07-30T06:27:31;21.50;93.90
50556;DHT22;36508;52.512;13.450;2022-07-30T06:30:02;21.50;94.00
50556;DHT22;36508;52.512;13.450;2022-07-30T06:32:28;21.40;94.10
50556;DHT22;36508;52.512;13.450;2022-07-30T06:34:54;21.50;94.40
50556;DHT22;36508;52.512;13.450;2022-07-30T06:37:20;21.50;93.90
50556;DHT22;36508;52.512;13.450;2022-07-30T06:39:45;21.40;94.20
50556;DHT22;36508;52.512;13.450;2022-07-30T06:42:11;21.50;94.40
50556;DHT22;36508;52.512;13.450;2022-07-30T06:44:37;21.50;94.50
50556;DHT22;36508;52.512;13.450;2022-07-30T06:47:02;21.50;94.70
50556;DHT22;36508;52.512;13.450;2022-07-30T06:49:31;21.70;94.60
50556;DHT22;36508;52.512;13.450;2022-07-30T06:51:57;21.80;94.50
50556;DHT22;36508;52.512;13.450;2022-07-30T06:54:23;21.70;94.60
50556;DHT22;36508;52.512;13.450;2022-07-30T06:56:48;21.60;94.90
50556;DHT22;36508;52.512;13.450;2022-07-30T06:59:14;21.80;94.70
50556;DHT22;36508;52.512;13.450;2022-07-30T07:01:40;21.80;94.70
50556;DHT22;36508;52.512;13.450;2022-07-30T07:04:05;22.00;94.60
50556;DHT22;36508;52.512;13.450;2022-07-30T07:06:31;22.00;94.40
50556;DHT22;36508;52.512;13.450;2022-07-30T07:08:57;21.90;94.50
50556;DHT22;36508;52.512;13.450;2022-07-30T07:11:23;22.00;94.70
50556;DHT22;36508;52.512;13.450;2022-07-30T07:13:49;22.10;94.60
50556;DHT22;36508;52.512;13.450;2022-07-30T07:16:15;22.00;94.10
50556;DHT22;36508;52.512;13.450;2022-07-30T07:18:41;22.00;94.40
50556;DHT22;36508;52.512;13.450;2022-07-30T07:21:07;22.00;94.40
50556;DHT22;36508;52.512;13.450;2022-07-30T07:23:33;22.10;94.50
50556;DHT22;36508;52.512;13.450;2022-07-30T07:25:59;22.10;94.40
50556;DHT22;36508;52.512;13.450;2022-07-30T07:28:25;22.30;94.60
50556;DHT22;36508;52.512;13.450;2022-07-30T07:30:51;22.40;94.40
50556;DHT22;36508;52.512;13.450;2022-07-30T07:33:17;22.40;94.50
50556;DHT22;36508;52.512;13.450;2022-07-30T07:35:42;22.50;94.30
50556;DHT22;36508;52.512;13.450;2022-07-30T07:38:08;22.50;94.20
50556;DHT22;36508;52.512;13.450;2022-07-30T07:40:34;22.50;94.20
50556;DHT22;36508;52.512;13.450;2022-07-30T07:43:00;22.50;94.00
50556;DHT22;36508;52.512;13.450;2022-07-30T07:45:25;22.50;93.80
50556;DHT22;36508;52.512;13.450;2022-07-30T07:47:51;22.30;94.80
50556;DHT22;36508;52.512;13.450;2022-07-30T07:50:18;22.50;94.60
50556;DHT22;36508;52.512;13.450;2022-07-30T07:52:44;22.50;94.60
50556;DHT22;36508;52.512;13.450;2022-07-30T07:55:47;22.70;94.80
50556;DHT22;36508;52.512;13.450;2022-07-30T07:58:12;22.90;94.10
50556;DHT22;36508;52.512;13.450;2022-07-30T08:00:39;23.10;93.50
50556;DHT22;36508;52.512;13.450;2022-07-30T08:03:04;23.00;93.70
50556;DHT22;36508;52.512;13.450;2022-07-30T08:05:30;23.00;93.60
50556;DHT22;36508;52.512;13.450;2022-07-30T08:07:57;22.90;93.70
50556;DHT22;36508;52.512;13.450;2022-07-30T08:10:23;23.10;93.60
50556;DHT22;36508;52.512;13.450;2022-07-30T08:12:49;23.10;93.60
50556;DHT22;36508;52.512;13.450;2022-07-30T08:15:15;23.20;93.60
50556;DHT22;36508;52.512;13.450;2022-07-30T08:17:42;23.30;93.50
50556;DHT22;36508;52.512;13.450;2022-07-30T08:20:09;23.40;93.10
50556;DHT22;36508;52.512;13.450;2022-07-30T08:22:35;23.20;93.60
50556;DHT22;36508;52.512;13.450;2022-07-30T08:25:02;23.30;93.70
50556;DHT22;36508;52.512;13.450;2022-07-30T08:27:28;23.40;93.60
50556;DHT22;36508;52.512;13.450;2022-07-30T08:29:54;23.40;94.00
50556;DHT22;36508;52.512;13.450;2022-07-30T08:32:20;23.70;93.40
50556;DHT22;36508;52.512;13.450;2022-07-30T08:34:46;23.80;93.10
50556;DHT22;36508;52.512;13.450;2022-07-30T08:37:12;23.80;93.50
50556;DHT22;36508;52.512;13.450;2022-07-30T08:39:38;23.30;93.80
50556;DHT22;36508;52.512;13.450;2022-07-30T08:42:04;23.30;93.90
50556;DHT22;36508;52.512;13.450;2022-07-30T08:44:32;23.40;94.00
50556;DHT22;36508;52.512;13.450;2022-07-30T08:47:00;23.80;93.20
50556;DHT22;36508;52.512;13.450;2022-07-30T08:49:27;24.00;93.50
50556;DHT22;36508;52.512;13.450;2022-07-30T08:51:53;23.90;93.50
50556;DHT22;36508;52.512;13.450;2022-07-30T08:54:20;24.20;92.80
50556;DHT22;36508;52.512;13.450;2022-07-30T08:56:46;24.40;92.50
50556;DHT22;36508;52.512;13.450;2022-07-30T08:59:18;24.20;92.40
50556;DHT22;36508;52.512;13.450;2022-07-30T09:01:47;24.10;92.90
50556;DHT22;36508;52.512;13.450;2022-07-30T09:04:14;24.50;92.60
50556;DHT22;36508;52.512;13.450;2022-07-30T09:06:40;24.70;92.50
50556;DHT22;36508;52.512;13.450;2022-07-30T09:09:06;24.90;92.30
50556;DHT22;36508;52.512;13.450;2022-07-30T09:11:33;24.90;91.80
50556;DHT22;36508;52.512;13.450;2022-07-30T09:14:08;24.80;91.50
50556;DHT22;36508;52.512;13.450;2022-07-30T09:16:35;24.80;91.90
50556;DHT22;36508;52.512;13.450;2022-07-30T09:19:14;24.80;91.90
50556;DHT22;36508;52.512;13.450;2022-07-30T09:21:40;25.00;92.20
50556;DHT22;36508;52.512;13.450;2022-07-30T09:24:10;25.00;91.70
50556;DHT22;36508;52.512;13.450;2022-07-30T09:26:53;25.00;91.90
50556;DHT22;36508;52.512;13.450;2022-07-30T09:29:24;25.20;91.80
50556;DHT22;36508;52.512;13.450;2022-07-30T09:31:52;25.20;92.20
50556;DHT22;36508;52.512;13.450;2022-07-30T09:34:38;25.00;91.90
50556;DHT22;36508;52.512;13.450;2022-07-30T09:39:37;24.90;92.30
50556;DHT22;36508;52.512;13.450;2022-07-30T09:42:22;25.10;92.40
50556;DHT22;36508;52.512;13.450;2022-07-30T09:44:49;24.80;92.30
50556;DHT22;36508;52.512;13.450;2022-07-30T09:50:03;25.20;91.90
50556;DHT22;36508;52.512;13.450;2022-07-30T09:52:29;25.40;91.70
50556;DHT22;36508;52.512;13.450;2022-07-30T09:54:54;25.50;91.10
50556;DHT22;36508;52.512;13.450;2022-07-30T09:57:20;25.40;90.90
50556;DHT22;36508;52.512;13.450;2022-07-30T09:59:46;25.30;91.20
50556;DHT22;36508;52.512;13.450;2022-07-30T10:02:11;25.30;91.10
50556;DHT22;36508;52.512;13.450;2022-07-30T10:04:37;25.40;91.00
50556;DHT22;36508;52.512;13.450;2022-07-30T10:07:03;25.50;91.00
50556;DHT22;36508;52.512;13.450;2022-07-30T10:09:34;25.50;91.50
50556;DHT22;36508;52.512;13.450;2022-07-30T10:12:02;25.60;91.10
50556;DHT22;36508;52.512;13.450;2022-07-30T10:14:32;25.80;90.90
50556;DHT22;36508;52.512;13.450;2022-07-30T10:16:59;25.90;90.30
50556;DHT22;36508;52.512;13.450;2022-07-30T10:19:25;26.20;90.50
50556;DHT22;36508;52.512;13.450;2022-07-30T10:21:51;26.40;90.00
50556;DHT22;36508;52.512;13.450;2022-07-30T10:24:23;26.50;90.00
50556;DHT22;36508;52.512;13.450;2022-07-30T10:26:53;26.70;88.90
50556;DHT22;36508;52.512;13.450;2022-07-30T10:29:19;26.80;88.50
50556;DHT22;36508;52.512;13.450;2022-07-30T10:31:47;26.90;88.30
50556;DHT22;36508;52.512;13.450;2022-07-30T10:34:14;27.00;88.20
50556;DHT22;36508;52.512;13.450;2022-07-30T10:36:45;27.00;88.00
50556;DHT22;36508;52.512;13.450;2022-07-30T10:39:15;27.00;88.30
50556;DHT22;36508;52.512;13.450;2022-07-30T10:41:46;26.80;88.40
50556;DHT22;36508;52.512;13.450;2022-07-30T10:47:02;27.70;87.20
50556;DHT22;36508;52.512;13.450;2022-07-30T10:49:30;28.60;83.80
50556;DHT22;36508;52.512;13.450;2022-07-30T10:51:57;28.70;81.40
50556;DHT22;36508;52.512;13.450;2022-07-30T11:02:16;28.70;80.70
50556;DHT22;36508;52.512;13.450;2022-07-30T11:04:42;28.30;81.00
50556;DHT22;36508;52.512;13.450;2022-07-30T11:09:49;28.00;82.70
50556;DHT22;36508;52.512;13.450;2022-07-30T11:15:11;28.50;81.80
50556;DHT22;36508;52.512;13.450;2022-07-30T11:17:56;28.90;79.70
50556;DHT22;36508;52.512;13.450;2022-07-30T11:20:22;29.00;79.50
50556;DHT22;36508;52.512;13.450;2022-07-30T11:22:48;28.80;78.50
50556;DHT22;36508;52.512;13.450;2022-07-30T11:27:53;28.70;77.70
50556;DHT22;36508;52.512;13.450;2022-07-30T11:32:49;31.10;73.80
50556;DHT22;36508;52.512;13.450;2022-07-30T11:38:06;33.20;67.60
50556;DHT22;36508;52.512;13.450;2022-07-30T11:40:36;32.90;68.00
50556;DHT22;36508;52.512;13.450;2022-07-30T11:43:32;33.80;66.50
50556;DHT22;36508;52.512;13.450;2022-07-30T11:46:16;34.50;63.40
50556;DHT22;36508;52.512;13.450;2022-07-30T11:51:24;34.50;62.00
50556;DHT22;36508;52.512;13.450;2022-07-30T11:54:04;35.70;60.80
50556;DHT22;36508;52.512;13.450;2022-07-30T11:56:31;37.50;58.50
50556;DHT22;36508;52.512;13.450;2022-07-30T11:59:01;36.30;57.90
50556;DHT22;36508;52.512;13.450;2022-07-30T12:01:28;35.60;58.60
50556;DHT22;36508;52.512;13.450;2022-07-30T12:03:55;35.00;59.10
50556;DHT22;36508;52.512;13.450;2022-07-30T12:06:21;34.80;58.80
50556;DHT22;36508;52.512;13.450;2022-07-30T12:08:50;34.20;58.10
50556;DHT22;36508;52.512;13.450;2022-07-30T12:11:16;33.00;59.90
50556;DHT22;36508;52.512;13.450;2022-07-30T12:13:43;32.40;60.80
50556;DHT22;36508;52.512;13.450;2022-07-30T12:16:19;32.10;63.70
50556;DHT22;36508;52.512;13.450;2022-07-30T12:18:46;31.40;63.70
50556;DHT22;36508;52.512;13.450;2022-07-30T12:21:13;31.00;64.50
50556;DHT22;36508;52.512;13.450;2022-07-30T12:24:02;30.30;65.90
50556;DHT22;36508;52.512;13.450;2022-07-30T12:26:30;30.00;66.90
50556;DHT22;36508;52.512;13.450;2022-07-30T12:28:57;29.80;67.20
50556;DHT22;36508;52.512;13.450;2022-07-30T12:31:24;29.90;65.70
50556;DHT22;36508;52.512;13.450;2022-07-30T12:33:51;29.90;65.80
50556;DHT22;36508;52.512;13.450;2022-07-30T12:36:34;29.90;66.90
50556;DHT22;36508;52.512;13.450;2022-07-30T12:39:01;29.50;66.80
50556;DHT22;36508;52.512;13.450;2022-07-30T12:41:59;29.20;67.20
50556;DHT22;36508;52.512;13.450;2022-07-30T12:44:39;29.20;67.20
50556;DHT22;36508;52.512;13.450;2022-07-30T12:47:21;29.40;66.40
50556;DHT22;36508;52.512;13.450;2022-07-30T12:49:48;29.70;67.00
50556;DHT22;36508;52.512;13.450;2022-07-30T12:55:07;29.90;67.00
50556;DHT22;36508;52.512;13.450;2022-07-30T12:57:53;29.90;65.80
50556;DHT22;36508;52.512;13.450;2022-07-30T13:00:26;29.90;65.40
50556;DHT22;36508;52.512;13.450;2022-07-30T13:02:53;29.70;66.20
50556;DHT22;36508;52.512;13.450;2022-07-30T13:05:19;29.70;67.70
50556;DHT22;36508;52.512;13.450;2022-07-30T13:07:56;29.60;67.10
50556;DHT22;36508;52.512;13.450;2022-07-30T13:10:22;29.60;68.20
50556;DHT22;36508;52.512;13.450;2022-07-30T13:12:48;29.50;67.30
50556;DHT22;36508;52.512;13.450;2022-07-30T13:15:18;29.50;68.40
50556;DHT22;36508;52.512;13.450;2022-07-30T13:17:44;29.30;66.90
50556;DHT22;36508;52.512;13.450;2022-07-30T13:20:11;29.00;67.90
50556;DHT22;36508;52.512;13.450;2022-07-30T13:22:37;29.10;67.90
50556;DHT22;36508;52.512;13.450;2022-07-30T13:25:03;29.20;67.80
50556;DHT22;36508;52.512;13.450;2022-07-30T13:27:28;28.90;67.50
50556;DHT22;36508;52.512;13.450;2022-07-30T13:29:54;28.80;69.20
50556;DHT22;36508;52.512;13.450;2022-07-30T13:32:20;29.00;68.50
50556;DHT22;36508;52.512;13.450;2022-07-30T13:34:45;29.00;67.70
50556;DHT22;36508;52.512;13.450;2022-07-30T13:37:11;29.10;69.60
50556;DHT22;36508;52.512;13.450;2022-07-30T13:39:37;29.20;68.10
50556;DHT22;36508;52.512;13.450;2022-07-30T13:42:02;29.10;69.50
50556;DHT22;36508;52.512;13.450;2022-07-30T13:44:28;29.30;67.60
50556;DHT22;36508;52.512;13.450;2022-07-30T13:46:54;29.30;65.70
50556;DHT22;36508;52.512;13.450;2022-07-30T13:49:19;29.30;66.40
50556;DHT22;36508;52.512;13.450;2022-07-30T13:51:45;29.50;65.40
50556;DHT22;36508;52.512;13.450;2022-07-30T13:54:11;29.50;65.60
50556;DHT22;36508;52.512;13.450;2022-07-30T13:56:36;29.30;65.50
50556;DHT22;36508;52.512;13.450;2022-07-30T13:59:02;29.00;66.80
50556;DHT22;36508;52.512;13.450;2022-07-30T14:01:29;29.00;67.60
50556;DHT22;36508;52.512;13.450;2022-07-30T14:03:55;29.10;66.60
50556;DHT22;36508;52.512;13.450;2022-07-30T14:06:20;28.90;68.10
50556;DHT22;36508;52.512;13.450;2022-07-30T14:08:46;28.90;66.50
50556;DHT22;36508;52.512;13.450;2022-07-30T14:11:13;28.70;67.30
50556;DHT22;36508;52.512;13.450;2022-07-30T14:13:38;28.90;67.70
50556;DHT22;36508;52.512;13.450;2022-07-30T14:16:04;29.10;67.90
50556;DHT22;36508;52.512;13.450;2022-07-30T14:18:31;29.10;66.30
50556;DHT22;36508;52.512;13.450;2022-07-30T14:20:56;29.10;66.00
50556;DHT22;36508;52.512;13.450;2022-07-30T14:23:22;29.00;65.70
50556;DHT22;36508;52.512;13.450;2022-07-30T14:25:48;29.00;65.10
50556;DHT22;36508;52.512;13.450;2022-07-30T14:28:14;29.10;65.60
50556;DHT22;36508;52.512;13.450;2022-07-30T14:30:40;29.20;65.50
50556;DHT22;36508;52.512;13.450;2022-07-30T14:33:06;29.10;64.20
50556;DHT22;36508;52.512;13.450;2022-07-30T14:35:32;29.20;63.10
50556;DHT22;36508;52.512;13.450;2022-07-30T14:37:58;29.10;63.40
50556;DHT22;36508;52.512;13.450;2022-07-30T14:40:24;29.10;63.20
50556;DHT22;36508;52.512;13.450;2022-07-30T14:42:50;29.10;63.10
50556;DHT22;36508;52.512;13.450;2022-07-30T14:45:16;29.00;63.10
50556;DHT22;36508;52.512;13.450;2022-07-30T14:47:42;29.00;63.70
50556;DHT22;36508;52.512;13.450;2022-07-30T14:50:08;28.90;63.60
50556;DHT22;36508;52.512;13.450;2022-07-30T14:52:35;29.10;65.50
50556;DHT22;36508;52.512;13.450;2022-07-30T14:55:04;29.30;65.40
50556;DHT22;36508;52.512;13.450;2022-07-30T14:57:31;29.30;65.80
50556;DHT22;36508;52.512;13.450;2022-07-30T14:59:57;29.40;64.50
50556;DHT22;36508;52.512;13.450;2022-07-30T15:02:23;29.30;64.30
50556;DHT22;36508;52.512;13.450;2022-07-30T15:04:49;29.30;63.50
50556;DHT22;36508;52.512;13.450;2022-07-30T15:07:15;29.20;64.70
50556;DHT22;36508;52.512;13.450;2022-07-30T15:09:41;29.00;64.70
50556;DHT22;36508;52.512;13.450;2022-07-30T15:12:07;29.00;63.90
50556;DHT22;36508;52.512;13.450;2022-07-30T15:14:37;29.00;63.70
50556;DHT22;36508;52.512;13.450;2022-07-30T15:17:03;28.90;62.50
50556;DHT22;36508;52.512;13.450;2022-07-30T15:19:31;28.80;63.50
50556;DHT22;36508;52.512;13.450;2022-07-30T15:21:58;28.70;63.00
50556;DHT22;36508;52.512;13.450;2022-07-30T15:24:26;28.70;63.50
50556;DHT22;36508;52.512;13.450;2022-07-30T15:26:51;28.90;63.90
50556;DHT22;36508;52.512;13.450;2022-07-30T15:29:17;29.10;63.90
50556;DHT22;36508;52.512;13.450;2022-07-30T15:31:43;29.30;64.00
50556;DHT22;36508;52.512;13.450;2022-07-30T15:34:09;29.70;63.50
50556;DHT22;36508;52.512;13.450;2022-07-30T15:36:37;29.80;62.60
50556;DHT22;36508;52.512;13.450;2022-07-30T15:39:06;30.10;61.60
50556;DHT22;36508;52.512;13.450;2022-07-30T15:41:32;30.60;60.60
50556;DHT22;36508;52.512;13.450;2022-07-30T15:43:58;30.40;58.90
50556;DHT22;36508;52.512;13.450;2022-07-30T15:46:24;30.20;60.30
50556;DHT22;36508;52.512;13.450;2022-07-30T15:48:49;31.00;59.60
50556;DHT22;36508;52.512;13.450;2022-07-30T15:51:15;31.70;58.70
50556;DHT22;36508;52.512;13.450;2022-07-30T15:53:41;32.10;58.30
50556;DHT22;36508;52.512;13.450;2022-07-30T15:56:07;32.60;57.20
50556;DHT22;36508;52.512;13.450;2022-07-30T15:58:33;33.20;56.40
50556;DHT22;36508;52.512;13.450;2022-07-30T16:00:58;33.70;56.30
50556;DHT22;36508;52.512;13.450;2022-07-30T16:03:24;33.80;55.10